sensor_id;sensor_type;location;lat;lon;timestamp;pressure;altitude;pressure_sealevel;temperature;humidity
21011;BME280;10663;42.714;23.274;2024-02-04T00:01:15;95202.91;;;7.58;66.24
21011;BME280;10663;42.714;23.274;2024-02-04T00:02:45;95210.03;;;7.57;66.60
21011;BME280;10663;42.714;23.274;2024-02-04T00:04:16;95203.41;;;7.55;66.83
21011;BME280;10663;42.714;23.274;2024-02-04T00:05:46;95201.69;;;7.48;66.92
21011;BME280;10663;42.714;23.274;2024-02-04T00:07:17;95197.31;;;7.54;66.95
21011;BME280;10663;42.714;23.274;2024-02-04T00:08:47;95208.31;;;7.51;67.19
21011;BME280;10663;42.714;23.274;2024-02-04T00:10:18;95226.84;;;7.56;67.20
21011;BME280;10663;42.714;23.274;2024-02-04T00:11:49;95220.56;;;7.57;66.95
21011;BME280;10663;42.714;23.274;2024-02-04T00:13:19;95213.13;;;7.54;67.52
21011;BME280;10663;42.714;23.274;2024-02-04T00:14:50;95201.31;;;7.57;67.71
21011;BME280;10663;42.714;23.274;2024-02-04T00:16:20;95205.00;;;7.56;67.67
21011;BME280;10663;42.714;23.274;2024-02-04T00:17:51;95202.13;;;7.57;67.56
21011;BME280;10663;42.714;23.274;2024-02-04T00:19:21;95210.50;;;7.54;67.38
21011;BME280;10663;42.714;23.274;2024-02-04T00:20:53;95222.06;;;7.53;68.06
21011;BME280;10663;42.714;23.274;2024-02-04T00:22:24;95210.28;;;7.56;67.99
21011;BME280;10663;42.714;23.274;2024-02-04T00:23:56;95222.88;;;7.54;68.46
21011;BME280;10663;42.714;23.274;2024-02-04T00:25:26;95219.22;;;7.55;68.59
21011;BME280;10663;42.714;23.274;2024-02-04T00:26:59;95210.03;;;7.57;68.68
21011;BME280;10663;42.714;23.274;2024-02-04T00:28:29;95211.53;;;7.53;68.91
21011;BME280;10663;42.714;23.274;2024-02-04T00:30:00;95226.84;;;7.56;69.04
21011;BME280;10663;42.714;23.274;2024-02-04T00:31:31;95212.44;;;7.59;69.06
21011;BME280;10663;42.714;23.274;2024-02-04T00:33:02;95204.94;;;7.67;68.90
21011;BME280;10663;42.714;23.274;2024-02-04T00:34:34;95204.94;;;7.67;68.54
21011;BME280;10663;42.714;23.274;2024-02-04T00:36:05;95217.09;;;7.68;68.58
21011;BME280;10663;42.714;23.274;2024-02-04T00:37:35;95199.22;;;7.70;68.60
21011;BME280;10663;42.714;23.274;2024-02-04T00:39:06;95200.84;;;7.71;68.20
21011;BME280;10663;42.714;23.274;2024-02-04T00:40:37;95206.78;;;7.67;68.78
21011;BME280;10663;42.714;23.274;2024-02-04T00:42:08;95209.91;;;7.64;68.44
21011;BME280;10663;42.714;23.274;2024-02-04T00:43:38;95202.53;;;7.66;68.81
21011;BME280;10663;42.714;23.274;2024-02-04T00:45:09;95202.00;;;7.64;68.75
21011;BME280;10663;42.714;23.274;2024-02-04T00:46:40;95202.09;;;7.69;68.88
21011;BME280;10663;42.714;23.274;2024-02-04T00:48:11;95197.03;;;7.67;68.43
21011;BME280;10663;42.714;23.274;2024-02-04T00:49:42;95189.84;;;7.63;68.83
21011;BME280;10663;42.714;23.274;2024-02-04T00:51:12;95195.94;;;7.63;69.06
21011;BME280;10663;42.714;23.274;2024-02-04T00:52:43;95202.13;;;7.57;69.11
21011;BME280;10663;42.714;23.274;2024-02-04T00:54:14;95200.72;;;7.66;68.73
21011;BME280;10663;42.714;23.274;2024-02-04T00:55:44;95208.75;;;7.60;69.14
21011;BME280;10663;42.714;23.274;2024-02-04T00:57:15;95198.00;;;7.61;68.87
21011;BME280;10663;42.714;23.274;2024-02-04T00:58:46;95190.44;;;7.65;68.98
21011;BME280;10663;42.714;23.274;2024-02-04T01:00:16;95192.84;;;7.55;69.19
21011;BME280;10663;42.714;23.274;2024-02-04T01:01:47;95200.50;;;7.56;69.38
21011;BME280;10663;42.714;23.274;2024-02-04T01:03:17;95191.13;;;7.60;69.45
21011;BME280;10663;42.714;23.274;2024-02-04T01:04:48;95187.09;;;7.58;69.74
21011;BME280;10663;42.714;23.274;2024-02-04T01:06:20;95187.78;;;7.65;69.13
21011;BME280;10663;42.714;23.274;2024-02-04T01:07:51;95192.72;;;7.61;69.73
21011;BME280;10663;42.714;23.274;2024-02-04T01:09:21;95184.25;;;7.59;69.61
21011;BME280;10663;42.714;23.274;2024-02-04T01:10:52;95198.13;;;7.55;69.44
21011;BME280;10663;42.714;23.274;2024-02-04T01:12:22;95193.66;;;7.55;70.14
21011;BME280;10663;42.714;23.274;2024-02-04T01:13:53;95197.41;;;7.59;69.68
21011;BME280;10663;42.714;23.274;2024-02-04T01:15:24;95199.25;;;7.59;70.19
21011;BME280;10663;42.714;23.274;2024-02-04T01:16:56;95187.44;;;7.61;70.08
21011;BME280;10663;42.714;23.274;2024-02-04T01:18:26;95187.31;;;7.68;69.83
21011;BME280;10663;42.714;23.274;2024-02-04T01:19:57;95199.03;;;7.60;70.61
21011;BME280;10663;42.714;23.274;2024-02-04T01:21:27;95193.84;;;7.65;70.06
21011;BME280;10663;42.714;23.274;2024-02-04T01:22:58;95188.94;;;7.57;70.71
21011;BME280;10663;42.714;23.274;2024-02-04T01:24:28;95196.63;;;7.59;71.06
21011;BME280;10663;42.714;23.274;2024-02-04T01:26:01;95203.72;;;7.58;71.16
21011;BME280;10663;42.714;23.274;2024-02-04T01:27:32;95193.88;;;7.54;71.41
21011;BME280;10663;42.714;23.274;2024-02-04T01:29:02;95200.63;;;7.61;71.35
21011;BME280;10663;42.714;23.274;2024-02-04T01:30:33;95192.94;;;7.60;71.23
21011;BME280;10663;42.714;23.274;2024-02-04T01:32:04;95185.38;;;7.63;71.30
21011;BME280;10663;42.714;23.274;2024-02-04T01:33:36;95189.28;;;7.61;71.49
21011;BME280;10663;42.714;23.274;2024-02-04T01:35:06;95186.06;;;7.59;71.48
21011;BME280;10663;42.714;23.274;2024-02-04T01:36:37;95187.22;;;7.63;71.84
21011;BME280;10663;42.714;23.274;2024-02-04T01:38:08;95186.66;;;7.61;71.66
21011;BME280;10663;42.714;23.274;2024-02-04T01:39:38;95177.47;;;7.63;71.82
21011;BME280;10663;42.714;23.274;2024-02-04T01:41:09;95179.78;;;7.60;71.78
21011;BME280;10663;42.714;23.274;2024-02-04T01:42:40;95181.94;;;7.63;71.60
21011;BME280;10663;42.714;23.274;2024-02-04T01:44:10;95184.34;;;7.64;71.77
21011;BME280;10663;42.714;23.274;2024-02-04T01:45:41;95174.47;;;7.71;71.24
21011;BME280;10663;42.714;23.274;2024-02-04T01:47:11;95179.59;;;7.78;71.26
21011;BME280;10663;42.714;23.274;2024-02-04T01:48:42;95176.50;;;7.81;70.81
21011;BME280;10663;42.714;23.274;2024-02-04T01:50:12;95173.88;;;7.81;70.71
21011;BME280;10663;42.714;23.274;2024-02-04T01:51:43;95176.00;;;7.84;70.77
21011;BME280;10663;42.714;23.274;2024-02-04T01:53:14;95174.97;;;7.85;70.77
21011;BME280;10663;42.714;23.274;2024-02-04T01:54:45;95171.53;;;7.84;70.69
21011;BME280;10663;42.714;23.274;2024-02-04T01:56:16;95170.44;;;7.80;71.01
21011;BME280;10663;42.714;23.274;2024-02-04T01:57:48;95168.66;;;7.86;70.87
21011;BME280;10663;42.714;23.274;2024-02-04T01:59:20;95165.38;;;7.79;70.91
21011;BME280;10663;42.714;23.274;2024-02-04T02:00:52;95173.28;;;7.79;71.12
21011;BME280;10663;42.714;23.274;2024-02-04T02:02:23;95174.56;;;7.76;71.40
21011;BME280;10663;42.714;23.274;2024-02-04T02:03:55;95164.94;;;7.82;71.55
21011;BME280;10663;42.714;23.274;2024-02-04T02:05:26;95173.28;;;7.79;71.36
21011;BME280;10663;42.714;23.274;2024-02-04T02:06:57;95187.50;;;7.78;71.43
21011;BME280;10663;42.714;23.274;2024-02-04T02:08:31;95171.69;;;7.78;71.69
21011;BME280;10663;42.714;23.274;2024-02-04T02:10:02;95180.97;;;7.80;71.75
21011;BME280;10663;42.714;23.274;2024-02-04T02:11:37;95175.69;;;7.80;71.84
21011;BME280;10663;42.714;23.274;2024-02-04T02:13:43;95172.72;;;7.77;71.63
21011;BME280;10663;42.714;23.274;2024-02-04T02:15:11;95156.22;;;7.81;71.58
21011;BME280;10663;42.714;23.274;2024-02-04T02:16:44;95159.16;;;7.85;71.90
21011;BME280;10663;42.714;23.274;2024-02-04T02:18:23;95161.22;;;7.83;71.79
21011;BME280;10663;42.714;23.274;2024-02-04T02:20:11;95164.66;;;7.83;71.96
21011;BME280;10663;42.714;23.274;2024-02-04T02:21:48;95165.47;;;7.84;72.00
21011;BME280;10663;42.714;23.274;2024-02-04T02:23:28;95171.00;;;7.82;71.85
21011;BME280;10663;42.714;23.274;2024-02-04T02:25:00;95154.13;;;7.83;71.73
21011;BME280;10663;42.714;23.274;2024-02-04T02:26:33;95161.00;;;7.84;71.63
21011;BME280;10663;42.714;23.274;2024-02-04T02:28:04;95158.59;;;7.83;71.46
21011;BME280;10663;42.714;23.274;2024-02-04T02:29:35;95155.94;;;7.83;71.64
21011;BME280;10663;42.714;23.274;2024-02-04T02:31:06;95150.69;;;7.83;72.12
21011;BME280;10663;42.714;23.274;2024-02-04T02:32:36;95163.41;;;7.86;71.78
21011;BME280;10663;42.714;23.274;2024-02-04T02:34:07;95155.25;;;7.87;71.63
21011;BME280;10663;42.714;23.274;2024-02-04T02:35:57;95160.53;;;7.87;71.93
21011;BME280;10663;42.714;23.274;2024-02-04T02:37:34;95157.56;;;7.84;72.00
21011;BME280;10663;42.714;23.274;2024-02-04T02:39:10;95155.25;;;7.87;72.33
21011;BME280;10663;42.714;23.274;2024-02-04T02:40:47;95151.59;;;7.88;71.98
21011;BME280;10663;42.714;23.274;2024-02-04T02:42:18;95152.38;;;7.89;72.11
21011;BME280;10663;42.714;23.274;2024-02-04T02:43:51;95152.16;;;7.91;71.87
21011;BME280;10663;42.714;23.274;2024-02-04T02:45:22;95154.00;;;7.90;72.08
21011;BME280;10663;42.714;23.274;2024-02-04T02:46:55;95154.53;;;7.92;72.36
21011;BME280;10663;42.714;23.274;2024-02-04T02:48:26;95153.50;;;7.93;72.44
21011;BME280;10663;42.714;23.274;2024-02-04T02:49:57;95149.38;;;7.97;72.03
21011;BME280;10663;42.714;23.274;2024-02-04T02:51:28;95147.19;;;7.94;72.20
21011;BME280;10663;42.714;23.274;2024-02-04T02:52:59;95147.31;;;7.99;72.10
21011;BME280;10663;42.714;23.274;2024-02-04T02:54:29;95149.84;;;7.94;72.47
21011;BME280;10663;42.714;23.274;2024-02-04T02:56:00;95148.56;;;7.97;71.97
21011;BME280;10663;42.714;23.274;2024-02-04T02:57:31;95142.50;;;7.96;71.95
21011;BME280;10663;42.714;23.274;2024-02-04T02:59:01;95142.25;;;7.98;71.87
21011;BME280;10663;42.714;23.274;2024-02-04T03:00:32;95137.78;;;7.98;71.90
21011;BME280;10663;42.714;23.274;2024-02-04T03:02:03;95139.50;;;7.93;71.98
21011;BME280;10663;42.714;23.274;2024-02-04T03:03:33;95141.00;;;8.00;71.85
21011;BME280;10663;42.714;23.274;2024-02-04T03:05:04;95139.38;;;7.99;71.72
21011;BME280;10663;42.714;23.274;2024-02-04T03:06:36;95149.44;;;8.02;72.22
21011;BME280;10663;42.714;23.274;2024-02-04T03:08:06;95157.13;;;8.04;71.75
21011;BME280;10663;42.714;23.274;2024-02-04T03:09:37;95148.19;;;8.05;71.52
21011;BME280;10663;42.714;23.274;2024-02-04T03:11:08;95140.09;;;8.11;71.31
21011;BME280;10663;42.714;23.274;2024-02-04T03:12:38;95140.03;;;8.06;71.46
21011;BME280;10663;42.714;23.274;2024-02-04T03:14:09;95137.16;;;8.08;71.43
21011;BME280;10663;42.714;23.274;2024-02-04T03:15:40;95143.00;;;8.10;71.51
21011;BME280;10663;42.714;23.274;2024-02-04T03:17:12;95132.75;;;8.13;71.18
21011;BME280;10663;42.714;23.274;2024-02-04T03:18:45;95156.59;;;8.18;71.20
21011;BME280;10663;42.714;23.274;2024-02-04T03:20:16;95156.69;;;8.23;71.09
21011;BME280;10663;42.714;23.274;2024-02-04T03:21:47;95137.66;;;8.21;70.97
21011;BME280;10663;42.714;23.274;2024-02-04T03:23:19;95169.88;;;8.23;70.91
21011;BME280;10663;42.714;23.274;2024-02-04T03:24:49;95152.41;;;8.34;70.49
21011;BME280;10663;42.714;23.274;2024-02-04T03:26:20;95144.03;;;8.37;70.39
21011;BME280;10663;42.714;23.274;2024-02-04T03:27:52;95153.22;;;8.35;70.55
21011;BME280;10663;42.714;23.274;2024-02-04T03:29:25;95148.81;;;8.40;70.50
21011;BME280;10663;42.714;23.274;2024-02-04T03:30:56;95135.38;;;8.42;70.63
21011;BME280;10663;42.714;23.274;2024-02-04T03:32:26;95140.66;;;8.42;70.40
21011;BME280;10663;42.714;23.274;2024-02-04T03:33:57;95154.66;;;8.42;70.32
21011;BME280;10663;42.714;23.274;2024-02-04T03:35:28;95137.31;;;8.46;70.49
21011;BME280;10663;42.714;23.274;2024-02-04T03:36:58;95142.25;;;8.43;70.34
21011;BME280;10663;42.714;23.274;2024-02-04T03:38:29;95137.22;;;8.41;70.59
21011;BME280;10663;42.714;23.274;2024-02-04T03:39:59;95155.63;;;8.36;70.78
21011;BME280;10663;42.714;23.274;2024-02-04T03:41:30;95119.22;;;8.38;70.77
21011;BME280;10663;42.714;23.274;2024-02-04T03:43:01;95129.28;;;8.41;70.97
21011;BME280;10663;42.714;23.274;2024-02-04T03:44:32;95115.75;;;8.38;70.81
21011;BME280;10663;42.714;23.274;2024-02-04T03:46:03;95113.63;;;8.35;71.44
21011;BME280;10663;42.714;23.274;2024-02-04T03:47:34;95117.63;;;8.37;71.12
21011;BME280;10663;42.714;23.274;2024-02-04T03:49:04;95133.94;;;8.34;70.82
21011;BME280;10663;42.714;23.274;2024-02-04T03:50:35;95108.03;;;8.31;71.19
21011;BME280;10663;42.714;23.274;2024-02-04T03:52:06;95114.66;;;8.34;71.05
21011;BME280;10663;42.714;23.274;2024-02-04T03:53:36;95113.50;;;8.30;70.97
21011;BME280;10663;42.714;23.274;2024-02-04T03:55:08;95114.09;;;8.32;71.04
21011;BME280;10663;42.714;23.274;2024-02-04T03:56:39;95115.03;;;8.25;71.04
21011;BME280;10663;42.714;23.274;2024-02-04T03:58:09;95131.72;;;8.14;71.54
21011;BME280;10663;42.714;23.274;2024-02-04T03:59:40;95128.22;;;8.09;72.02
21011;BME280;10663;42.714;23.274;2024-02-04T04:01:10;95127.94;;;8.10;71.80
21011;BME280;10663;42.714;23.274;2024-02-04T04:02:42;95149.56;;;8.07;72.01
21011;BME280;10663;42.714;23.274;2024-02-04T04:04:12;95133.00;;;8.12;71.78
21011;BME280;10663;42.714;23.274;2024-02-04T04:05:43;95141.41;;;8.09;72.08
21011;BME280;10663;42.714;23.274;2024-02-04T04:07:13;95123.75;;;8.09;72.18
21011;BME280;10663;42.714;23.274;2024-02-04T04:08:44;95120.19;;;8.04;72.28
21011;BME280;10663;42.714;23.274;2024-02-04T04:10:14;95114.53;;;8.12;71.90
21011;BME280;10663;42.714;23.274;2024-02-04T04:11:45;95120.94;;;8.16;72.36
21011;BME280;10663;42.714;23.274;2024-02-04T04:13:16;95134.19;;;8.21;72.08
21011;BME280;10663;42.714;23.274;2024-02-04T04:14:46;95131.53;;;8.33;71.60
21011;BME280;10663;42.714;23.274;2024-02-04T04:16:19;95122.34;;;8.35;70.95
21011;BME280;10663;42.714;23.274;2024-02-04T04:17:50;95124.59;;;8.43;71.02
21011;BME280;10663;42.714;23.274;2024-02-04T04:19:20;95110.13;;;8.46;70.67
21011;BME280;10663;42.714;23.274;2024-02-04T04:20:52;95119.59;;;8.47;70.56
21011;BME280;10663;42.714;23.274;2024-02-04T04:22:22;95126.88;;;8.40;70.57
21011;BME280;10663;42.714;23.274;2024-02-04T04:23:53;95115.88;;;8.43;70.75
21011;BME280;10663;42.714;23.274;2024-02-04T04:25:23;95117.28;;;8.50;70.50
21011;BME280;10663;42.714;23.274;2024-02-04T04:26:54;95127.16;;;8.55;70.19
21011;BME280;10663;42.714;23.274;2024-02-04T04:28:25;95130.81;;;8.54;70.10
21011;BME280;10663;42.714;23.274;2024-02-04T04:29:55;95130.81;;;8.54;70.05
21011;BME280;10663;42.714;23.274;2024-02-04T04:31:26;95146.09;;;8.52;69.93
21011;BME280;10663;42.714;23.274;2024-02-04T04:32:56;95132.31;;;8.50;70.42
21011;BME280;10663;42.714;23.274;2024-02-04T04:34:29;95143.06;;;8.43;70.39
21011;BME280;10663;42.714;23.274;2024-02-04T04:35:59;95131.47;;;8.44;70.47
21011;BME280;10663;42.714;23.274;2024-02-04T04:37:30;95125.94;;;8.46;70.61
21011;BME280;10663;42.714;23.274;2024-02-04T04:39:00;95133.06;;;8.45;70.59
21011;BME280;10663;42.714;23.274;2024-02-04T04:40:31;95126.47;;;8.48;70.69
21011;BME280;10663;42.714;23.274;2024-02-04T04:42:02;95124.19;;;8.51;70.12
21011;BME280;10663;42.714;23.274;2024-02-04T04:43:32;95123.44;;;8.56;70.29
21011;BME280;10663;42.714;23.274;2024-02-04T04:45:03;95126.88;;;8.56;70.07
21011;BME280;10663;42.714;23.274;2024-02-04T04:46:37;95119.47;;;8.53;70.46
21011;BME280;10663;42.714;23.274;2024-02-04T04:48:07;95121.59;;;8.56;70.36
21011;BME280;10663;42.714;23.274;2024-02-04T04:49:39;95128.66;;;8.51;70.40
21011;BME280;10663;42.714;23.274;2024-02-04T04:51:10;95115.78;;;8.54;70.51
21011;BME280;10663;42.714;23.274;2024-02-04T04:52:42;95128.19;;;8.54;70.57
21011;BME280;10663;42.714;23.274;2024-02-04T04:54:12;95128.66;;;8.51;70.50
21011;BME280;10663;42.714;23.274;2024-02-04T04:55:43;95115.53;;;8.56;70.30
21011;BME280;10663;42.714;23.274;2024-02-04T04:57:14;95116.59;;;8.55;70.52
21011;BME280;10663;42.714;23.274;2024-02-04T04:58:44;95133.94;;;8.51;70.35
21011;BME280;10663;42.714;23.274;2024-02-04T05:00:15;95142.88;;;8.50;70.64
21011;BME280;10663;42.714;23.274;2024-02-04T05:01:49;95126.81;;;8.51;70.31
21011;BME280;10663;42.714;23.274;2024-02-04T05:03:20;95121.53;;;8.51;70.27
21011;BME280;10663;42.714;23.274;2024-02-04T05:04:51;95123.94;;;8.53;70.32
21011;BME280;10663;42.714;23.274;2024-02-04T05:06:21;95119.13;;;8.50;70.22
21011;BME280;10663;42.714;23.274;2024-02-04T05:07:51;95138.06;;;8.47;70.43
21011;BME280;10663;42.714;23.274;2024-02-04T05:09:22;95112.25;;;8.49;70.40
21011;BME280;10663;42.714;23.274;2024-02-04T05:10:53;95116.66;;;8.43;70.60
21011;BME280;10663;42.714;23.274;2024-02-04T05:12:23;95118.75;;;8.41;70.57
21011;BME280;10663;42.714;23.274;2024-02-04T05:13:54;95118.66;;;8.36;70.95
21011;BME280;10663;42.714;23.274;2024-02-04T05:15:24;95118.41;;;8.38;70.92
21011;BME280;10663;42.714;23.274;2024-02-04T05:16:55;95119.53;;;8.42;70.85
21011;BME280;10663;42.714;23.274;2024-02-04T05:18:25;95124.25;;;8.40;70.88
21011;BME280;10663;42.714;23.274;2024-02-04T05:19:57;95121.03;;;8.38;71.38
21011;BME280;10663;42.714;23.274;2024-02-04T05:21:27;95127.94;;;8.39;71.21
21011;BME280;10663;42.714;23.274;2024-02-04T05:22:58;95136.97;;;8.43;71.25
21011;BME280;10663;42.714;23.274;2024-02-04T05:24:29;95130.59;;;8.55;70.93
21011;BME280;10663;42.714;23.274;2024-02-04T05:26:02;95136.97;;;8.59;70.96
21011;BME280;10663;42.714;23.274;2024-02-04T05:27:33;95137.06;;;8.65;70.51
21011;BME280;10663;42.714;23.274;2024-02-04T05:29:04;95133.91;;;8.68;70.41
21011;BME280;10663;42.714;23.274;2024-02-04T05:30:34;95138.53;;;8.77;70.37
21011;BME280;10663;42.714;23.274;2024-02-04T05:32:05;95130.38;;;8.79;69.89
21011;BME280;10663;42.714;23.274;2024-02-04T05:33:36;95153.91;;;8.80;69.78
21011;BME280;10663;42.714;23.274;2024-02-04T05:35:07;95140.53;;;8.87;69.34
21011;BME280;10663;42.714;23.274;2024-02-04T05:36:37;95133.88;;;8.84;69.42
21011;BME280;10663;42.714;23.274;2024-02-04T05:38:09;95132.28;;;8.83;69.24
21011;BME280;10663;42.714;23.274;2024-02-04T05:39:40;95123.31;;;8.84;69.08
21011;BME280;10663;42.714;23.274;2024-02-04T05:41:10;95121.72;;;8.83;69.00
21011;BME280;10663;42.714;23.274;2024-02-04T05:42:41;95132.28;;;8.83;68.53
21011;BME280;10663;42.714;23.274;2024-02-04T05:44:13;95127.00;;;8.83;68.47
21011;BME280;10663;42.714;23.274;2024-02-04T05:45:43;95129.66;;;8.83;68.50
21011;BME280;10663;42.714;23.274;2024-02-04T05:47:14;95151.03;;;8.82;68.44
21011;BME280;10663;42.714;23.274;2024-02-04T05:48:44;95135.44;;;8.80;68.44
21011;BME280;10663;42.714;23.274;2024-02-04T05:50:15;95145.44;;;8.78;68.48
21011;BME280;10663;42.714;23.274;2024-02-04T05:51:45;95140.16;;;8.78;68.09
21011;BME280;10663;42.714;23.274;2024-02-04T05:53:17;95142.22;;;8.76;68.26
21011;BME280;10663;42.714;23.274;2024-02-04T05:54:48;95132.97;;;8.74;68.52
21011;BME280;10663;42.714;23.274;2024-02-04T05:56:18;95144.41;;;8.62;68.70
21011;BME280;10663;42.714;23.274;2024-02-04T05:57:50;95165.19;;;8.59;68.85
21011;BME280;10663;42.714;23.274;2024-02-04T05:59:21;95154.06;;;8.57;68.55
21011;BME280;10663;42.714;23.274;2024-02-04T06:00:51;95158.81;;;8.55;68.48
21011;BME280;10663;42.714;23.274;2024-02-04T06:02:22;95159.84;;;8.37;69.29
21011;BME280;10663;42.714;23.274;2024-02-04T06:03:53;95157.69;;;8.34;69.65
21011;BME280;10663;42.714;23.274;2024-02-04T06:05:24;95180.41;;;8.23;69.96
21011;BME280;10663;42.714;23.274;2024-02-04T06:06:54;95165.72;;;8.27;69.64
21011;BME280;10663;42.714;23.274;2024-02-04T06:08:25;95167.47;;;8.22;69.97
21011;BME280;10663;42.714;23.274;2024-02-04T06:09:55;95152.13;;;8.19;70.01
21011;BME280;10663;42.714;23.274;2024-02-04T06:11:26;95150.59;;;8.06;70.66
21011;BME280;10663;42.714;23.274;2024-02-04T06:12:57;95158.72;;;8.05;70.63
21011;BME280;10663;42.714;23.274;2024-02-04T06:14:27;95149.31;;;8.09;70.36
21011;BME280;10663;42.714;23.274;2024-02-04T06:15:58;95149.31;;;8.09;70.76
21011;BME280;10663;42.714;23.274;2024-02-04T06:17:28;95168.81;;;8.08;70.80
21011;BME280;10663;42.714;23.274;2024-02-04T06:18:59;95157.94;;;8.04;71.07
21011;BME280;10663;42.714;23.274;2024-02-04T06:20:30;95167.81;;;7.97;71.63
21011;BME280;10663;42.714;23.274;2024-02-04T06:22:01;95157.84;;;7.99;71.37
21011;BME280;10663;42.714;23.274;2024-02-04T06:23:32;95156.25;;;7.98;70.93
21011;BME280;10663;42.714;23.274;2024-02-04T06:25:03;95171.13;;;8.04;70.54
21011;BME280;10663;42.714;23.274;2024-02-04T06:26:38;95174.81;;;8.20;70.25
21011;BME280;10663;42.714;23.274;2024-02-04T06:28:09;95183.94;;;8.29;69.22
21011;BME280;10663;42.714;23.274;2024-02-04T06:29:41;95207.59;;;8.36;69.26
21011;BME280;10663;42.714;23.274;2024-02-04T06:31:11;95180.22;;;8.42;69.05
21011;BME280;10663;42.714;23.274;2024-02-04T06:32:43;95172.94;;;8.49;68.68
21011;BME280;10663;42.714;23.274;2024-02-04T06:34:13;95169.59;;;8.53;68.64
21011;BME280;10663;42.714;23.274;2024-02-04T06:35:44;95176.22;;;8.56;68.60
21011;BME280;10663;42.714;23.274;2024-02-04T06:37:14;95180.06;;;8.65;68.30
21011;BME280;10663;42.714;23.274;2024-02-04T06:38:45;95179.69;;;8.73;68.06
21011;BME280;10663;42.714;23.274;2024-02-04T06:40:15;95181.19;;;8.69;67.96
21011;BME280;10663;42.714;23.274;2024-02-04T06:41:46;95177.06;;;8.73;67.96
21011;BME280;10663;42.714;23.274;2024-02-04T06:43:16;95179.75;;;8.78;67.58
21011;BME280;10663;42.714;23.274;2024-02-04T06:44:47;95186.16;;;8.82;67.49
21011;BME280;10663;42.714;23.274;2024-02-04T06:46:27;95172.84;;;8.94;67.20
21011;BME280;10663;42.714;23.274;2024-02-04T06:47:57;95175.03;;;8.97;67.12
21011;BME280;10663;42.714;23.274;2024-02-04T06:49:28;95192.13;;;8.94;67.22
21011;BME280;10663;42.714;23.274;2024-02-04T06:50:58;95169.25;;;9.00;67.40
21011;BME280;10663;42.714;23.274;2024-02-04T06:52:29;95171.41;;;9.03;67.25
21011;BME280;10663;42.714;23.274;2024-02-04T06:53:59;95182.47;;;9.00;67.20
21011;BME280;10663;42.714;23.274;2024-02-04T06:55:31;95177.56;;;9.09;67.22
21011;BME280;10663;42.714;23.274;2024-02-04T06:57:02;95187.81;;;9.05;67.21
21011;BME280;10663;42.714;23.274;2024-02-04T06:58:32;95183.72;;;9.14;66.97
21011;BME280;10663;42.714;23.274;2024-02-04T07:00:03;95205.03;;;9.08;67.27
21011;BME280;10663;42.714;23.274;2024-02-04T07:01:35;95202.78;;;8.99;67.34
21011;BME280;10663;42.714;23.274;2024-02-04T07:03:06;95217.44;;;9.07;67.19
21011;BME280;10663;42.714;23.274;2024-02-04T07:04:36;95176.22;;;9.06;66.98
21011;BME280;10663;42.714;23.274;2024-02-04T07:06:07;95195.50;;;9.07;67.23
21011;BME280;10663;42.714;23.274;2024-02-04T07:07:38;95198.63;;;9.04;67.21
21011;BME280;10663;42.714;23.274;2024-02-04T07:09:08;95193.75;;;8.95;67.45
21011;BME280;10663;42.714;23.274;2024-02-04T07:10:39;95172.69;;;9.00;67.63
21011;BME280;10663;42.714;23.274;2024-02-04T07:12:09;95196.16;;;8.97;67.66
21011;BME280;10663;42.714;23.274;2024-02-04T07:13:40;95179.81;;;9.00;67.63
21011;BME280;10663;42.714;23.274;2024-02-04T07:15:10;95187.41;;;8.96;67.98
21011;BME280;10663;42.714;23.274;2024-02-04T07:16:41;95173.84;;;8.88;68.29
21011;BME280;10663;42.714;23.274;2024-02-04T07:18:12;95174.44;;;8.95;68.14
21011;BME280;10663;42.714;23.274;2024-02-04T07:19:43;95191.34;;;8.94;68.33
21011;BME280;10663;42.714;23.274;2024-02-04T07:21:13;95220.38;;;8.94;68.19
21011;BME280;10663;42.714;23.274;2024-02-04T07:22:44;95202.06;;;8.87;68.34
21011;BME280;10663;42.714;23.274;2024-02-04T07:24:15;95187.34;;;8.91;68.20
21011;BME280;10663;42.714;23.274;2024-02-04T07:25:45;95190.53;;;9.10;67.59
21011;BME280;10663;42.714;23.274;2024-02-04T07:27:16;95187.47;;;9.18;67.23
21011;BME280;10663;42.714;23.274;2024-02-04T07:28:46;95188.44;;;9.12;67.33
21011;BME280;10663;42.714;23.274;2024-02-04T07:30:17;95198.28;;;9.17;67.23
21011;BME280;10663;42.714;23.274;2024-02-04T07:31:48;95200.13;;;9.16;67.33
21011;BME280;10663;42.714;23.274;2024-02-04T07:33:18;95188.09;;;9.25;67.12
21011;BME280;10663;42.714;23.274;2024-02-04T07:34:49;95197.69;;;9.31;67.02
21011;BME280;10663;42.714;23.274;2024-02-04T07:36:19;95176.16;;;9.23;66.82
21011;BME280;10663;42.714;23.274;2024-02-04T07:37:50;95186.72;;;9.23;66.57
21011;BME280;10663;42.714;23.274;2024-02-04T07:39:20;95184.28;;;9.38;66.40
21011;BME280;10663;42.714;23.274;2024-02-04T07:40:51;95182.75;;;9.42;66.14
21011;BME280;10663;42.714;23.274;2024-02-04T07:42:21;95195.41;;;9.40;66.05
21011;BME280;10663;42.714;23.274;2024-02-04T07:43:54;95188.53;;;9.39;66.10
21011;BME280;10663;42.714;23.274;2024-02-04T07:45:24;95187.25;;;9.42;65.82
21011;BME280;10663;42.714;23.274;2024-02-04T07:46:55;95186.31;;;9.31;66.12
21011;BME280;10663;42.714;23.274;2024-02-04T07:48:25;95188.00;;;9.37;65.63
21011;BME280;10663;42.714;23.274;2024-02-04T07:49:56;95189.31;;;9.39;65.71
21011;BME280;10663;42.714;23.274;2024-02-04T07:51:26;95188.38;;;9.46;65.47
21011;BME280;10663;42.714;23.274;2024-02-04T07:52:57;95188.78;;;9.59;64.97
21011;BME280;10663;42.714;23.274;2024-02-04T07:54:27;95200.16;;;9.60;64.63
21011;BME280;10663;42.714;23.274;2024-02-04T07:55:58;95213.34;;;9.55;64.57
21011;BME280;10663;42.714;23.274;2024-02-04T07:57:28;95183.97;;;9.56;64.77
21011;BME280;10663;42.714;23.274;2024-02-04T07:58:59;95203.66;;;9.65;64.30
21011;BME280;10663;42.714;23.274;2024-02-04T08:00:30;95190.63;;;9.81;64.18
21011;BME280;10663;42.714;23.274;2024-02-04T08:02:01;95193.03;;;9.82;64.19
21011;BME280;10663;42.714;23.274;2024-02-04T08:03:31;95213.56;;;9.53;64.77